Time;durP1;ratioP1;P1;durP2;ratioP2;P2;SDS_P1;SDS_P2;PMS_P1;PMS_P2;Temp;Humidity;BMP_temperature;BMP_pressure;BME280_temperature;BME280_humidity;BME280_pressure;Samples;Min_cycle;Max_cycle;Signal;HPM_P1;HPM_P2
2022/12/22 03:31:54;;;;;;;62.50;34.20;;;;;;;4.85;70.55;98740.41;223658;1241;107182;-68
2022/12/22 03:49:09;;;;;;;60.80;36.00;;;;;;;4.73;70.94;98745.88;222802;1264;137979;-67
2022/12/22 03:55:03;;;;;;;;;;;;;;;;;;;;;
2022/12/22 04:00:18;;;;;;;74.90;42.50;;;;;;;4.79;70.93;98748.27;222568;1280;140793;-66
2022/12/22 04:05:38;;;;;;;145.80;86.70;;;;;;;4.86;71.12;98747.05;222666;1264;139404;-66
2022/12/22 04:17:46;;;;;;;65.70;37.30;;;;;;;4.97;70.92;98740.27;222841;1261;124544;-69
2022/12/22 04:32:14;;;;;;;59.30;35.50;;;;;;;5.17;70.28;98733.73;222217;1264;138736;-72
2022/12/22 04:37:42;;;;;;;63.70;35.80;;;;;;;5.00;70.27;98733.61;222625;1264;138210;-70
2022/12/22 04:43:10;;;;;;;67.60;39.50;;;;;;;4.92;70.86;98726.05;222526;1264;138363;-71
2022/12/22 04:48:40;;;;;;;61.60;34.80;;;;;;;4.91;70.68;98716.97;222360;1264;138854;-69
2022/12/22 04:53:45;;;;;;;64.60;35.40;;;;;;;4.90;70.61;98714.91;222430;1265;139425;-69
2022/12/22 04:58:50;;;;;;;62.80;36.30;;;;;;;4.98;71.07;98707.52;222426;1268;138462;-63
2022/12/22 05:03:54;;;;;;;65.20;36.50;;;;;;;5.13;70.45;98701.38;222736;1265;139242;-63
2022/12/22 05:15:40;;;;;;;60.20;35.90;;;;;;;5.15;70.76;98692.69;222243;1264;138844;-64
2022/12/22 05:21:12;;;;;;;61.20;35.00;;;;;;;5.07;70.50;98691.98;222681;1289;138785;-63
2022/12/22 05:26:42;;;;;;;61.40;33.30;;;;;;;5.04;70.50;98686.00;222437;1271;139316;-63
2022/12/22 05:33:30;;;;;;;55.20;33.80;;;;;;;4.93;70.77;98696.48;222794;1264;138085;-67
2022/12/22 05:45:33;;;;;;;61.30;34.00;;;;;;;4.80;70.88;98689.88;223441;1241;137812;-67
2022/12/22 05:51:00;;;;;;;61.80;34.40;;;;;;;4.79;70.86;98679.35;222422;1261;138767;-67
2022/12/22 05:57:03;;;;;;;60.70;34.30;;;;;;;4.84;71.07;98674.75;221395;1267;138906;-63
2022/12/22 06:03:15;;;;;;;;;;;;;;;4.90;71.08;98678.70;222712;1280;139158;-64
2022/12/22 06:09:23;;;;;;;58.10;33.70;;;;;;;4.89;70.78;98676.80;222635;1260;124231;-67
2022/12/22 06:14:42;;;;;;;56.20;32.40;;;;;;;4.87;71.01;98680.95;223272;1261;137458;-67
2022/12/22 06:28:15;;;;;;;;;;;;;;;;;;;;;
2022/12/22 06:34:16;;;;;;;61.80;37.90;;;;;;;4.56;71.08;98696.20;221955;1267;124656;-68
2022/12/22 06:40:02;;;;;;;55.10;29.70;;;;;;;4.51;71.35;98694.29;222395;1281;137871;-67
2022/12/22 06:45:48;;;;;;;55.90;31.00;;;;;;;4.54;71.72;98695.74;222658;1267;137808;-66
2022/12/22 06:54:57;;;;;;;61.00;31.80;;;;;;;4.74;71.71;98683.29;218389;1277;635887;-67
2022/12/22 07:01:41;;;;;;;56.00;32.00;;;;;;;4.81;71.33;98677.17;220731;1273;138265;-68
2022/12/22 07:12:52;;;;;;;59.00;32.10;;;;;;;4.94;71.52;98677.09;223182;1256;107719;-68
2022/12/22 07:22:12;;;;;;;58.60;31.80;;;;;;;4.94;71.16;98680.11;220595;1285;636072;-66
2022/12/22 07:37:14;;;;;;;55.20;31.30;;;;;;;4.96;71.15;98660.30;220162;1273;644165;-64
2022/12/22 07:44:17;;;;;;;51.60;31.60;;;;;;;4.88;71.17;98660.16;222902;1264;137623;-64
2022/12/22 08:04:46;;;;;;;65.20;35.50;;;;;;;5.05;71.28;98648.81;219768;1277;656482;-64
2022/12/22 08:19:24;;;;;;;;;;;;;;;;;;;;;
2022/12/22 08:26:13;;;;;;;;;;;;;;;;;;;;;
2022/12/22 08:56:05;;;;;;;61.80;35.10;;;;;;;5.82;70.34;98616.86;220331;1274;138154;-69
2022/12/22 09:41:47;;;;;;;55.80;32.20;;;;;;;5.97;69.80;98542.02;220235;1274;138523;-66
2022/12/22 09:53:14;;;;;;;58.60;35.10;;;;;;;6.28;69.61;98514.65;220402;1271;635579;-67
2022/12/22 09:58:30;;;;;;;59.50;36.60;;;;;;;6.38;69.24;98513.94;222739;1285;138256;-68
2022/12/22 10:03:45;;;;;;;;;;;;;;;6.47;69.20;98510.30;222731;1258;138365;-67
2022/12/22 10:08:49;;;;;;;58.00;33.40;;;;;;;6.52;69.22;98509.65;222794;1257;124197;-69
2022/12/22 10:13:54;;;;;;;73.10;41.00;;;;;;;6.69;70.02;98497.84;222738;1258;138879;-68
2022/12/22 10:18:59;;;;;;;69.10;35.70;;;;;;;6.89;68.84;98487.35;222740;1273;138787;-68
2022/12/22 10:24:36;;;;;;;64.20;36.30;;;;;;;6.86;68.65;98476.90;222715;1258;139988;-69
2022/12/22 10:29:39;;;;;;;56.40;33.70;;;;;;;6.85;68.56;98474.52;222644;1280;139346;-66
2022/12/22 10:35:02;;;;;;;59.40;33.20;;;;;;;6.86;68.43;98460.53;222730;1258;139143;-66
2022/12/22 10:40:17;;;;;;;60.30;35.40;;;;;;;6.82;68.32;98450.89;222774;1283;138226;-64
2022/12/22 10:45:25;;;;;;;60.80;36.00;;;;;;;6.74;68.27;98450.32;222727;1255;139214;-66
2022/12/22 10:50:29;;;;;;;60.40;35.30;;;;;;;6.64;68.05;98446.98;222730;1257;138705;-68
2022/12/22 10:55:34;;;;;;;58.90;36.10;;;;;;;6.61;68.04;98441.66;222682;1264;140137;-65
2022/12/22 11:00:38;;;;;;;59.90;36.80;;;;;;;6.67;68.25;98432.38;222740;1258;138246;-66
2022/12/22 11:05:43;;;;;;;63.50;36.70;;;;;;;6.74;68.33;98420.54;222771;1257;138022;-66
2022/12/22 11:11:06;;;;;;;56.90;37.00;;;;;;;6.74;67.86;98419.10;222795;1273;141021;-66
2022/12/22 11:16:18;;;;;;;64.40;37.50;;;;;;;6.73;67.87;98414.05;222889;1261;138698;-65
2022/12/22 11:21:44;;;;;;;65.10;39.30;;;;;;;6.72;67.76;98410.39;222737;1258;138454;-66
2022/12/22 11:26:59;;;;;;;69.50;39.40;;;;;;;6.73;67.87;98403.64;222776;1258;138660;-66
2022/12/22 11:32:52;;;;;;;65.40;40.50;;;;;;;6.74;67.95;98398.29;222747;1261;138562;-66
2022/12/22 11:38:10;;;;;;;62.10;39.00;;;;;;;6.80;68.11;98388.60;222514;1280;138572;-66
2022/12/22 11:43:35;;;;;;;64.20;38.30;;;;;;;6.87;68.15;98394.00;222716;1258;139557;-67
2022/12/22 11:49:07;;;;;;;67.50;40.90;;;;;;;6.94;68.12;98390.14;222724;1254;138193;-67
2022/12/22 11:55:12;;;;;;;63.80;39.00;;;;;;;7.04;68.13;98374.54;222584;1273;138681;-66
2022/12/22 12:01:05;;;;;;;67.10;39.00;;;;;;;7.15;68.28;98376.34;222607;1261;138999;-66
2022/12/22 12:07:03;;;;;;;61.70;39.50;;;;;;;7.29;67.96;98376.76;222696;1264;139674;-65
2022/12/22 12:12:38;;;;;;;67.30;39.40;;;;;;;7.41;67.57;98372.02;222581;1255;139409;-65
2022/12/22 12:21:25;;;;;;;68.70;41.30;;;;;;;7.41;67.20;98355.75;220562;1274;635315;-65
2022/12/22 12:27:03;;;;;;;64.60;40.60;;;;;;;7.43;67.35;98354.42;222664;1270;138286;-66
2022/12/22 12:32:42;;;;;;;;;;;;;;;;;;;;;
2022/12/22 12:38:46;;;;;;;64.90;38.30;;;;;;;7.51;67.21;98347.61;222527;1261;138774;-67
2022/12/22 12:44:23;;;;;;;67.00;38.30;;;;;;;7.57;67.09;98336.07;222722;1261;139893;-66
2022/12/22 12:50:05;;;;;;;66.60;38.60;;;;;;;7.62;67.05;98332.23;222703;1261;138342;-66
2022/12/22 12:55:53;;;;;;;67.40;37.80;;;;;;;7.64;66.89;98326.81;222613;1267;138733;-66
2022/12/22 13:00:58;;;;;;;64.40;35.60;;;;;;;7.65;67.06;98320.39;222623;1258;138870;-66
2022/12/22 13:06:09;;;;;;;61.30;37.40;;;;;;;7.63;66.81;98319.45;222720;1255;138219;-66
2022/12/22 13:11:56;;;;;;;65.40;39.10;;;;;;;7.59;66.88;98312.98;222600;1262;138937;-67
2022/12/22 13:18:12;;;;;;;74.40;40.30;;;;;;;7.63;67.01;98307.99;222747;1257;139076;-65
2022/12/22 13:23:35;;;;;;;64.10;37.60;;;;;;;7.61;66.90;98290.80;222763;1261;138989;-67
2022/12/22 13:30:08;;;;;;;75.20;42.40;;;;;;;7.52;66.63;98286.98;222799;1285;139664;-67
2022/12/22 13:35:37;;;;;;;76.20;43.20;;;;;;;7.47;66.53;98294.48;222857;1258;138402;-66
2022/12/22 13:41:14;;;;;;;67.70;42.40;;;;;;;7.45;66.72;98299.23;222759;1274;139570;-65
2022/12/22 13:46:36;;;;;;;83.20;46.20;;;;;;;7.42;66.98;98308.60;222786;1261;139013;-65
2022/12/22 13:51:46;;;;;;;74.10;44.20;;;;;;;7.38;66.91;98304.60;222629;1258;139098;-66
2022/12/22 13:57:07;;;;;;;71.70;42.30;;;;;;;7.25;66.33;98300.77;222767;1260;138699;-66
2022/12/22 14:02:14;;;;;;;81.80;42.30;;;;;;;7.11;66.42;98292.48;222685;1274;139675;-65
2022/12/22 14:07:27;;;;;;;78.20;45.60;;;;;;;6.99;66.73;98289.13;222800;1260;138852;-65
2022/12/22 14:12:52;;;;;;;75.20;42.90;;;;;;;6.91;67.27;98294.70;222663;1261;138591;-65
2022/12/22 14:18:11;;;;;;;75.30;42.20;;;;;;;6.84;67.28;98289.31;222534;1257;138839;-66
2022/12/22 14:23:30;;;;;;;75.20;46.20;;;;;;;6.75;67.37;98288.40;222920;1258;138812;-66
2022/12/22 14:28:49;;;;;;;81.90;45.50;;;;;;;6.67;67.47;98286.08;222938;1254;138841;-66
2022/12/22 14:34:02;;;;;;;76.10;44.60;;;;;;;6.59;67.55;98293.20;222650;1284;138394;-66
2022/12/22 14:39:43;;;;;;;83.00;45.60;;;;;;;6.57;67.52;98286.66;222740;1258;139304;-65
2022/12/22 14:44:57;;;;;;;79.90;46.70;;;;;;;6.56;67.38;98285.62;222535;1276;139716;-66
2022/12/22 14:50:21;;;;;;;79.80;47.00;;;;;;;6.55;67.64;98283.60;222726;1254;139346;-67
2022/12/22 14:55:32;;;;;;;74.40;43.10;;;;;;;6.47;67.29;98282.63;222707;1263;138986;-66
2022/12/22 15:00:44;;;;;;;83.90;47.10;;;;;;;6.34;67.43;98288.32;222732;1273;138775;-65
2022/12/22 15:05:48;;;;;;;86.30;48.90;;;;;;;6.22;67.84;98277.91;222699;1262;138640;-65
2022/12/22 15:10:52;;;;;;;82.00;47.60;;;;;;;6.17;68.37;98278.17;222841;1262;138641;-65
2022/12/22 15:15:57;;;;;;;81.20;46.90;;;;;;;6.15;68.28;98270.40;222692;1260;138791;-65
2022/12/22 15:21:01;;;;;;;77.30;47.60;;;;;;;6.07;68.26;98274.35;222681;1257;138514;-65
2022/12/22 15:26:05;;;;;;;226.60;141.30;;;;;;;6.03;68.45;98274.39;222609;1285;138619;-65
2022/12/22 15:31:14;;;;;;;81.20;48.70;;;;;;;6.04;68.97;98268.33;222720;1262;139418;-65
2022/12/22 15:36:21;;;;;;;70.50;43.00;;;;;;;6.00;68.51;98265.41;222696;1274;138805;-65
2022/12/22 15:41:50;;;;;;;76.90;44.40;;;;;;;5.93;68.22;98261.23;222762;1261;139434;-64
2022/12/22 15:46:56;;;;;;;76.60;44.60;;;;;;;6.02;68.85;98262.48;222799;1262;139043;-63
2022/12/22 15:52:03;;;;;;;77.00;45.00;;;;;;;6.06;68.81;98258.73;222601;1286;138933;-64
2022/12/22 15:57:11;;;;;;;85.00;45.90;;;;;;;6.06;68.72;98251.67;222662;1258;139071;-65
2022/12/22 16:02:18;;;;;;;78.80;44.10;;;;;;;6.07;68.80;98246.16;222633;1260;139460;-65
2022/12/22 16:07:22;;;;;;;86.30;48.90;;;;;;;6.06;68.52;98246.79;222631;1281;139036;-63
2022/12/22 16:12:29;;;;;;;78.30;47.40;;;;;;;6.04;68.90;98242.28;222787;1258;139641;-66
2022/12/22 16:17:33;;;;;;;82.20;49.10;;;;;;;5.99;68.84;98238.37;222749;1268;141135;-66
2022/12/22 16:22:38;;;;;;;82.50;49.00;;;;;;;5.95;69.24;98230.14;222788;1276;138292;-66
2022/12/22 16:27:41;;;;;;;89.00;50.70;;;;;;;5.88;69.00;98234.54;222708;1261;138312;-65
2022/12/22 16:32:44;;;;;;;79.20;46.70;;;;;;;5.87;69.21;98229.64;222585;1277;139132;-65
2022/12/22 16:37:55;;;;;;;81.60;46.70;;;;;;;5.86;69.81;98236.55;222530;1261;139228;-64
2022/12/22 16:43:07;;;;;;;82.50;47.60;;;;;;;5.88;69.17;98236.43;222603;1257;139311;-67
2022/12/22 16:48:37;;;;;;;81.90;47.90;;;;;;;5.92;69.32;98228.16;222569;1259;139728;-64
2022/12/22 16:53:45;;;;;;;83.80;48.70;;;;;;;5.99;69.38;98229.40;222681;1261;138995;-64
2022/12/22 16:59:04;;;;;;;77.60;47.90;;;;;;;6.01;68.91;98225.58;222624;1258;139264;-66
2022/12/22 17:04:18;;;;;;;84.90;49.10;;;;;;;5.98;68.81;98226.42;222653;1258;138890;-66
2022/12/22 17:09:26;;;;;;;72.40;41.00;;;;;;;6.01;69.63;98234.40;222678;1257;138632;-67
2022/12/22 17:14:36;;;;;;;61.10;36.30;;;;;;;6.16;69.75;98233.86;222734;1274;139256;-65
2022/12/22 17:19:39;;;;;;;44.10;24.80;;;;;;;6.28;70.43;98229.64;222760;1261;139077;-66
2022/12/22 17:24:42;;;;;;;38.10;20.10;;;;;;;6.70;71.80;98224.20;222711;1261;139056;-66
2022/12/22 17:29:45;;;;;;;33.10;18.70;;;;;;;7.12;70.85;98223.23;222653;1261;139531;-66
2022/12/22 17:34:49;;;;;;;31.40;17.60;;;;;;;7.43;70.12;98219.80;222742;1260;139495;-65
2022/12/22 17:39:59;;;;;;;31.30;16.90;;;;;;;7.69;69.72;98217.94;222656;1258;139493;-66
2022/12/22 17:45:11;;;;;;;23.30;15.00;;;;;;;7.89;69.03;98211.52;222692;1277;138671;-66
2022/12/22 17:50:17;;;;;;;24.10;15.00;;;;;;;8.02;68.47;98209.82;222631;1260;139640;-65
2022/12/22 17:55:26;;;;;;;26.20;14.80;;;;;;;8.11;68.02;98212.61;222673;1261;138199;-64
2022/12/22 18:00:49;;;;;;;25.00;13.40;;;;;;;8.16;67.92;98216.70;222672;1257;138947;-65
2022/12/22 18:05:53;;;;;;;21.90;13.80;;;;;;;8.19;67.54;98211.20;222719;1258;138444;-65
2022/12/22 18:10:57;;;;;;;22.40;12.90;;;;;;;8.19;67.49;98200.94;222732;1260;138713;-65
2022/12/22 18:16:00;;;;;;;21.60;12.70;;;;;;;8.22;67.37;98197.91;222596;1261;138400;-67
2022/12/22 18:21:04;;;;;;;19.90;10.80;;;;;;;8.25;67.26;98194.89;222667;1257;140193;-65
2022/12/22 18:26:28;;;;;;;18.50;9.70;;;;;;;8.29;67.20;98192.69;222762;1257;138580;-65
2022/12/22 18:31:31;;;;;;;18.70;10.10;;;;;;;8.43;66.87;98190.02;222676;1257;139530;-65
2022/12/22 18:36:36;;;;;;;13.60;8.20;;;;;;;8.69;69.77;98191.79;222756;1258;139356;-65
2022/12/22 18:41:40;;;;;;;15.80;8.30;;;;;;;8.95;66.52;98186.27;222661;1260;139502;-66
2022/12/22 18:46:44;;;;;;;13.60;7.90;;;;;;;8.84;66.11;98184.05;222798;1274;139000;-65
2022/12/22 18:51:47;;;;;;;15.80;12.10;;;;;;;8.79;65.54;98182.27;222658;1258;138361;-68
2022/12/22 18:56:52;;;;;;;16.30;7.80;;;;;;;8.83;66.54;98180.43;222604;1260;139006;-68
2022/12/22 19:02:27;;;;;;;62.00;46.20;;;;;;;8.77;65.68;98177.45;222628;1261;138974;-68
2022/12/22 19:07:31;;;;;;;18.50;10.30;;;;;;;8.76;65.94;98170.09;222762;1258;138689;-68
2022/12/22 19:12:34;;;;;;;14.70;9.40;;;;;;;8.73;65.16;98165.89;222694;1258;139159;-66
2022/12/22 19:17:38;;;;;;;18.10;10.70;;;;;;;8.69;64.96;98165.95;222644;1254;138476;-67
2022/12/22 19:22:44;;;;;;;199.60;121.70;;;;;;;8.70;65.55;98162.38;222744;1261;138688;-67
2022/12/22 19:27:53;;;;;;;21.90;12.10;;;;;;;8.82;65.32;98170.58;222567;1261;139901;-66
2022/12/22 19:33:00;;;;;;;18.60;11.10;;;;;;;8.84;65.26;98174.53;222511;1283;140240;-68
2022/12/22 19:38:18;;;;;;;23.40;11.60;;;;;;;8.83;64.55;98171.37;222572;1277;140008;-69
2022/12/22 19:43:22;;;;;;;19.60;12.20;;;;;;;8.72;64.28;98175.10;222653;1273;138949;-71
2022/12/22 19:48:26;;;;;;;83.00;51.60;;;;;;;8.76;65.28;98175.25;222602;1260;139165;-70
2022/12/22 19:53:29;;;;;;;25.30;13.20;;;;;;;8.76;64.72;98174.66;222655;1261;139249;-70
2022/12/22 19:58:38;;;;;;;23.50;14.40;;;;;;;8.51;63.89;98177.80;222756;1265;139013;-70
2022/12/22 20:03:41;;;;;;;29.00;13.40;;;;;;;8.21;63.81;98178.55;222609;1277;139947;-69
2022/12/22 20:08:45;;;;;;;22.10;13.40;;;;;;;8.05;64.45;98178.69;222633;1261;138868;-69
2022/12/22 20:13:48;;;;;;;26.70;14.50;;;;;;;7.90;64.53;98172.44;222617;1274;139086;-70
2022/12/22 20:18:53;;;;;;;23.60;13.70;;;;;;;7.67;64.51;98172.48;222650;1258;138536;-70
2022/12/22 20:24:00;;;;;;;260.40;178.30;;;;;;;7.42;64.96;98177.45;222588;1276;139324;-69
2022/12/22 20:29:03;;;;;;;26.40;15.90;;;;;;;7.27;65.68;98189.15;222694;1258;140852;-69
2022/12/22 20:34:07;;;;;;;23.40;13.70;;;;;;;7.05;65.81;98182.58;222620;1260;139327;-72
2022/12/22 20:39:13;;;;;;;26.60;14.30;;;;;;;6.91;66.22;98189.45;222669;1276;139425;-71
2022/12/22 20:44:16;;;;;;;25.50;15.00;;;;;;;6.76;66.58;98188.79;222603;1277;138911;-69
2022/12/22 20:49:19;;;;;;;26.00;15.40;;;;;;;6.63;66.66;98186.03;222648;1280;139729;-71
2022/12/22 20:54:22;;;;;;;36.10;21.60;;;;;;;6.76;67.65;98187.38;222610;1262;139282;-69
2022/12/22 20:59:26;;;;;;;30.00;18.70;;;;;;;7.07;67.88;98187.60;222666;1286;139131;-67
2022/12/22 21:04:32;;;;;;;34.70;20.90;;;;;;;7.10;66.54;98183.16;222724;1261;138832;-69
2022/12/22 21:09:38;;;;;;;28.90;18.30;;;;;;;7.06;66.83;98181.11;222508;1262;139750;-71
2022/12/22 21:14:41;;;;;;;35.50;20.40;;;;;;;7.05;66.30;98176.58;222550;1287;139280;-70
2022/12/22 21:19:45;;;;;;;37.60;20.70;;;;;;;7.03;66.53;98172.17;222620;1261;140623;-70
2022/12/22 21:24:48;;;;;;;30.80;17.50;;;;;;;7.06;66.64;98172.66;222648;1262;140045;-69
2022/12/22 21:29:51;;;;;;;23.60;15.50;;;;;;;7.08;66.74;98176.02;222629;1261;139673;-69
2022/12/22 21:34:54;;;;;;;25.50;16.90;;;;;;;7.18;67.15;98175.28;222754;1260;139157;-69
2022/12/22 21:39:57;;;;;;;31.50;17.20;;;;;;;7.24;67.15;98168.35;222685;1287;138661;-72
2022/12/22 21:45:01;;;;;;;29.90;17.50;;;;;;;7.38;67.00;98157.95;222605;1259;140424;-68
2022/12/22 21:50:05;;;;;;;23.90;16.50;;;;;;;7.46;66.64;98157.24;222714;1261;139013;-69
2022/12/22 21:55:08;;;;;;;28.10;17.00;;;;;;;7.59;66.56;98155.41;222841;1261;140384;-70
2022/12/22 22:00:16;;;;;;;35.10;21.90;;;;;;;7.73;66.18;98155.86;222846;1258;139049;-65
2022/12/22 22:05:35;;;;;;;31.90;18.90;;;;;;;7.69;65.55;98159.14;222930;1260;139216;-69
2022/12/22 22:10:41;;;;;;;29.50;17.60;;;;;;;7.72;65.66;98157.38;223004;1258;139409;-70
2022/12/22 22:15:44;;;;;;;;;;;;;;;7.71;65.28;98158.81;222865;1258;139204;-69
2022/12/22 22:20:49;;;;;;;32.70;17.70;;;;;;;7.62;65.23;98154.33;222966;1261;126770;-67
2022/12/22 22:25:57;;;;;;;;;;;;;;;7.67;65.46;98164.21;222895;1260;139190;-68
2022/12/22 22:31:01;;;;;;;26.00;15.40;;;;;;;7.67;65.46;98173.92;222911;1261;125377;-68
2022/12/22 22:36:06;;;;;;;22.90;13.00;;;;;;;7.66;65.48;98170.64;222829;1268;139105;-70
2022/12/22 22:41:09;;;;;;;18.40;10.80;;;;;;;7.71;65.54;98169.44;222979;1258;139347;-71
2022/12/22 22:46:12;;;;;;;14.90;9.40;;;;;;;7.80;65.33;98167.27;222798;1260;138799;-69
2022/12/22 22:51:16;;;;;;;17.60;9.30;;;;;;;7.84;65.17;98155.91;222935;1258;139337;-70
2022/12/22 22:56:20;;;;;;;12.90;8.30;;;;;;;7.88;65.08;98151.36;222918;1261;138524;-69
2022/12/22 23:01:23;;;;;;;14.60;8.40;;;;;;;7.89;65.10;98150.45;222861;1261;139353;-70
2022/12/22 23:06:26;;;;;;;12.70;8.10;;;;;;;7.91;64.92;98148.16;222887;1260;139051;-68
2022/12/22 23:11:30;;;;;;;15.00;8.50;;;;;;;7.93;65.01;98150.19;223048;1258;139172;-69
2022/12/22 23:16:33;;;;;;;14.30;9.40;;;;;;;8.03;64.82;98147.08;222880;1258;139310;-68
2022/12/22 23:21:40;;;;;;;16.90;10.20;;;;;;;8.11;64.66;98150.92;222917;1261;138993;-70
2022/12/22 23:26:44;;;;;;;20.90;12.20;;;;;;;8.13;64.50;98152.61;222830;1258;138727;-70
2022/12/22 23:32:01;;;;;;;27.00;15.90;;;;;;;8.03;64.15;98155.54;222755;1269;139019;-69
2022/12/22 23:37:30;;;;;;;30.70;17.30;;;;;;;7.86;64.34;98159.44;222769;1258;138918;-67
2022/12/22 23:42:35;;;;;;;;;;;;;;;7.78;64.40;98157.86;222836;1261;139171;-68
2022/12/22 23:47:39;;;;;;;31.50;17.60;;;;;;;7.65;64.36;98163.26;222960;1258;124767;-66
2022/12/22 23:53:02;;;;;;;28.60;16.00;;;;;;;7.55;64.68;98165.52;222945;1258;138705;-66
2022/12/22 23:58:37;;;;;;;27.40;16.00;;;;;;;7.47;64.77;98169.90;222772;1260;139184;-69
